Time;durP1;ratioP1;P1;durP2;ratioP2;P2;SDS_P1;SDS_P2;PMS_P1;PMS_P2;Temp;Humidity;BMP_temperature;BMP_pressure;BME280_temperature;BME280_humidity;BME280_pressure;Samples;Min_cycle;Max_cycle;Signal;HPM_P1;HPM_P2
2023/02/01 00:00:59;;;;;;;5.57;5.17;;;4.30;99.90;;;4.99;96.64;98532.97;5223062;28;20208;-81
2023/02/01 00:03:32;;;;;;;5.00;4.60;;;4.30;99.90;;;4.97;96.56;98531.19;5229425;28;20761;-82
2023/02/01 00:06:07;;;;;;;4.97;4.60;;;4.30;99.90;;;4.95;97.22;98537.78;5230285;28;20952;-83
2023/02/01 00:08:40;;;;;;;4.90;4.50;;;4.30;99.90;;;5.00;95.96;98535.63;5223932;28;20264;-82
2023/02/01 00:11:14;;;;;;;5.13;4.73;;;4.50;99.90;;;4.92;97.15;98532.44;5223125;28;20224;-83
2023/02/01 00:13:47;;;;;;;5.00;4.57;;;4.30;99.90;;;4.95;96.60;98537.78;5218282;28;20321;-82
2023/02/01 00:16:23;;;;;;;4.93;4.53;;;4.30;99.90;;;4.88;96.98;98537.97;5223089;28;20234;-83
2023/02/01 00:19:00;;;;;;;4.90;4.50;;;4.30;99.90;;;5.01;95.78;98541.59;5225850;28;20292;-83
2023/02/01 00:21:35;;;;;;;5.10;4.70;;;4.40;99.90;;;5.06;95.38;98532.75;5230156;28;20990;-82
2023/02/01 00:24:10;;;;;;;5.23;4.73;;;4.50;99.90;;;4.90;96.68;98535.59;5227642;28;20201;-83
2023/02/01 00:26:45;;;;;;;4.77;4.47;;;4.30;99.90;;;4.74;98.13;98530.78;5229241;28;20193;-81
2023/02/01 00:29:21;;;;;;;5.07;4.67;;;4.20;99.90;;;4.81;98.11;98523.00;5220095;28;20194;-83
2023/02/01 00:31:54;;;;;;;4.50;4.10;;;4.20;99.90;;;4.83;97.79;98531.59;5223856;28;20229;-83
2023/02/01 00:34:27;;;;;;;4.73;4.40;;;4.20;99.90;;;4.87;97.35;98523.53;5230796;28;20205;-83
2023/02/01 00:37:01;;;;;;;4.90;4.50;;;4.20;99.90;;;4.90;97.50;98513.69;5229490;28;20284;-82
2023/02/01 00:39:34;;;;;;;4.60;4.30;;;4.20;99.90;;;4.94;97.45;98523.31;5232583;28;20927;-83
2023/02/01 00:42:08;;;;;;;4.93;4.60;;;4.20;99.90;;;4.93;97.48;98520.66;5229267;28;20584;-83
2023/02/01 00:44:41;;;;;;;4.40;4.10;;;4.20;99.90;;;5.02;96.41;98523.13;5233650;28;20669;-83
2023/02/01 00:47:14;;;;;;;4.57;4.17;;;4.40;99.90;;;4.96;97.29;98520.94;5229067;28;20696;-83
2023/02/01 00:49:47;;;;;;;4.50;4.10;;;4.30;99.90;;;4.87;98.13;98521.00;5230594;28;20207;-83
2023/02/01 00:52:21;;;;;;;4.53;4.00;;;4.20;99.90;;;5.03;97.03;98513.09;5230656;28;20317;-83
2023/02/01 00:54:54;;;;;;;3.90;3.60;;;4.30;99.90;;;5.00;96.91;98511.94;5230573;28;20197;-83
2023/02/01 00:57:27;;;;;;;4.40;4.10;;;4.30;99.90;;;4.86;98.39;98505.66;5222390;28;20301;-83
2023/02/01 01:00:00;;;;;;;4.20;3.90;;;4.20;99.90;;;4.79;98.44;98509.28;5223899;28;20549;-82
2023/02/01 01:02:33;;;;;;;4.40;4.10;;;4.20;99.90;;;4.90;98.25;98490.88;5222758;28;20221;-82
2023/02/01 01:05:07;;;;;;;4.97;4.57;;;4.20;99.90;;;4.89;97.83;98491.66;5226009;28;20229;-83
2023/02/01 01:07:41;;;;;;;3.70;3.50;;;4.20;99.90;;;5.12;96.02;98490.22;5218418;28;20194;-82
2023/02/01 01:10:14;;;;;;;4.37;4.07;;;4.30;99.90;;;5.00;96.82;98489.16;5228557;28;20264;-83
2023/02/01 01:12:47;;;;;;;4.10;3.80;;;4.30;99.90;;;4.85;98.15;98489.56;5224564;28;20713;-83
2023/02/01 01:15:20;;;;;;;4.23;3.93;;;4.20;99.90;;;4.90;98.03;98482.41;5230993;28;20193;-83
2023/02/01 01:17:54;;;;;;;3.60;3.40;;;4.10;99.90;;;4.99;97.16;98488.28;5232073;28;20213;-84
2023/02/01 01:20:27;;;;;;;4.27;3.97;;;4.20;99.90;;;4.95;97.74;98486.19;5229916;28;20201;-83
2023/02/01 01:23:01;;;;;;;4.17;3.93;;;4.20;99.90;;;4.93;98.16;98477.59;5229908;28;20217;-81
2023/02/01 01:25:39;;;;;;;3.97;3.67;;;4.20;99.90;;;4.80;98.61;98478.13;5220267;28;20261;-83
2023/02/01 01:28:12;;;;;;;4.20;4.00;;;4.10;99.90;;;4.93;97.70;98467.47;5231359;28;20240;-83
2023/02/01 01:30:45;;;;;;;3.70;3.50;;;4.20;99.90;;;5.03;97.07;98464.09;5225479;28;20198;-83
2023/02/01 01:33:18;;;;;;;4.80;4.50;;;4.20;99.90;;;4.97;96.26;98465.31;5226760;28;20291;-83
2023/02/01 01:35:51;;;;;;;4.27;3.97;;;4.20;99.90;;;4.92;96.54;98475.81;5219717;28;20531;-82
2023/02/01 01:38:26;;;;;;;3.90;3.70;;;4.20;99.90;;;4.81;96.77;98462.22;5223029;28;20288;-83
2023/02/01 01:40:59;;;;;;;4.17;3.87;;;4.10;99.90;;;4.81;96.91;98466.34;5225239;28;20228;-83
2023/02/01 01:43:49;;;;;;;3.63;3.43;;;4.00;99.90;;;4.89;96.59;98471.38;5227470;28;20658;-83
2023/02/01 01:46:25;;;;;;;3.70;3.40;;;4.20;99.90;;;4.69;97.51;98466.16;5226805;28;20194;-83
2023/02/01 01:49:06;;;;;;;4.03;3.73;;;4.00;99.90;;;4.78;97.01;98461.94;5230244;28;20201;-83
2023/02/01 01:51:44;;;;;;;4.40;4.10;;;4.00;99.90;;;4.65;98.04;98479.31;5225204;28;20632;-83
2023/02/01 01:54:25;;;;;;;3.87;3.63;;;4.00;99.90;;;4.90;97.01;98473.16;5226950;28;20230;-82
2023/02/01 01:57:03;;;;;;;4.13;3.83;;;4.10;99.90;;;4.75;97.17;98476.88;5223972;28;20219;-82
2023/02/01 01:59:39;;;;;;;3.97;3.53;;;4.10;99.90;;;4.70;97.47;98476.44;5225616;28;20193;-82
2023/02/01 02:02:12;;;;;;;3.43;3.23;;;4.10;99.90;;;4.79;97.29;98475.50;5224241;28;20232;-81
2023/02/01 02:04:47;;;;;;;4.03;3.80;;;4.10;99.90;;;4.75;97.08;98466.75;5223969;28;20692;-83
2023/02/01 02:07:25;;;;;;;3.50;3.30;;;4.10;99.90;;;4.90;96.38;98463.03;5221388;28;20661;-83
2023/02/01 02:09:59;;;;;;;3.73;3.43;;;4.20;99.90;;;4.96;95.95;98453.44;5226509;28;20201;-84
2023/02/01 02:12:33;;;;;;;3.60;3.40;;;4.30;99.90;;;4.85;97.19;98459.19;5227580;28;20223;-84
2023/02/01 02:15:09;;;;;;;3.40;3.10;;;4.10;99.90;;;4.93;96.59;98452.28;5230157;28;20319;-84
2023/02/01 02:17:50;;;;;;;3.90;3.60;;;4.20;99.90;;;4.83;96.87;98445.50;5222909;28;20196;-83
2023/02/01 02:20:54;;;;;;;3.53;3.23;;;4.20;99.90;;;4.77;97.65;98452.53;5224258;28;20209;-82
2023/02/01 02:24:34;;;;;;;3.90;3.60;;;4.10;99.90;;;4.88;96.65;98443.38;5223222;28;20296;-83
2023/02/01 02:27:25;;;;;;;3.73;3.53;;;4.20;99.90;;;4.71;98.10;98441.88;5224376;28;20210;-83
2023/02/01 02:30:58;;;;;;;3.80;3.50;;;4.10;99.90;;;4.85;97.42;98444.00;5217679;28;20203;-80
2023/02/01 02:33:48;;;;;;;3.40;3.20;;;4.10;99.90;;;4.72;97.91;98438.59;5144601;28;20231;-83
2023/02/01 02:36:33;;;;;;;3.73;3.53;;;4.10;99.90;;;4.97;97.34;98447.59;5220861;28;20279;-83
2023/02/01 02:39:15;;;;;;;3.60;3.40;;;4.20;99.90;;;5.04;96.57;98435.50;5221245;28;20197;-83
2023/02/01 02:47:51;;;;;;;3.73;3.53;;;4.20;99.90;;;4.94;97.19;98429.59;5222384;28;20284;-84
2023/02/01 03:05:05;;;;;;;3.67;3.47;;;4.40;99.90;;;5.13;95.49;98424.50;5221931;28;20682;-83
2023/02/01 03:08:03;;;;;;;3.83;3.53;;;4.40;99.90;;;5.03;96.09;98428.63;5214589;28;20276;-80
2023/02/01 03:10:44;;;;;;;4.00;3.60;;;4.40;99.90;;;5.04;96.13;98427.91;5226552;28;20197;-83
2023/02/01 03:13:29;;;;;;;3.80;3.50;;;4.40;99.90;;;5.01;96.03;98420.00;5221589;28;20664;-83
2023/02/01 03:16:10;;;;;;;4.20;3.80;;;4.40;99.90;;;5.04;96.19;98421.19;5225382;28;20262;-82
2023/02/01 03:18:52;;;;;;;3.93;3.63;;;4.40;99.90;;;5.07;95.31;98408.78;5221760;28;20381;-83
2023/02/01 03:21:29;;;;;;;3.60;3.40;;;4.50;99.90;;;5.07;95.03;98405.34;5217863;28;20254;-83
2023/02/01 03:24:10;;;;;;;3.50;3.27;;;4.60;99.90;;;5.04;95.16;98400.03;5222447;28;20197;-83
2023/02/01 03:26:49;;;;;;;4.23;3.93;;;4.60;99.90;;;5.03;94.77;98398.22;5222322;28;20197;-83
2023/02/01 03:29:26;;;;;;;3.80;3.60;;;4.80;99.90;;;4.99;95.65;98396.19;5222691;28;20207;-83
2023/02/01 03:31:59;;;;;;;4.33;4.03;;;4.70;99.90;;;4.97;95.42;98394.41;5222091;28;20225;-82
2023/02/01 03:34:33;;;;;;;3.83;3.60;;;4.60;99.90;;;4.92;95.78;98374.50;5221686;28;20259;-83
2023/02/01 03:37:10;;;;;;;4.73;4.43;;;4.60;99.90;;;4.96;95.58;98374.03;5227278;28;20201;-83
2023/02/01 03:39:49;;;;;;;4.13;3.93;;;4.70;99.90;;;4.92;95.99;98365.28;5219770;28;20244;-83
2023/02/01 03:42:29;;;;;;;4.33;4.03;;;4.70;99.90;;;4.93;95.94;98361.97;5224678;28;20311;-83
2023/02/01 03:45:10;;;;;;;4.10;3.80;;;4.60;99.90;;;4.94;95.94;98355.25;5226684;28;20208;-83
2023/02/01 03:47:48;;;;;;;4.27;3.97;;;4.70;99.90;;;5.02;96.70;98355.94;5221332;28;20193;-83
2023/02/01 03:50:25;;;;;;;4.00;3.80;;;4.60;99.90;;;4.94;95.99;98363.75;5224575;28;20201;-84
2023/02/01 03:53:03;;;;;;;4.17;3.87;;;4.70;99.90;;;4.89;95.95;98375.16;5216614;28;20213;-83
2023/02/01 03:55:38;;;;;;;4.40;4.10;;;4.70;99.90;;;4.91;97.00;98373.59;5227430;28;20302;-83
2023/02/01 03:58:16;;;;;;;4.50;4.20;;;4.60;99.90;;;4.94;96.76;98378.94;5225728;28;20207;-83
2023/02/01 04:00:54;;;;;;;3.80;3.50;;;4.60;99.90;;;5.02;96.84;98376.19;5222778;28;20194;-81
2023/02/01 04:03:28;;;;;;;4.70;4.37;;;4.60;99.90;;;5.06;96.19;98383.28;5223980;28;20243;-83
2023/02/01 04:06:01;;;;;;;4.63;4.30;;;4.80;99.90;;;4.95;97.03;98380.72;5219422;28;20651;-82
2023/02/01 04:08:34;;;;;;;4.30;4.00;;;4.60;99.90;;;5.01;96.79;98394.66;5218803;28;20284;-83
2023/02/01 04:11:09;;;;;;;4.43;4.13;;;4.60;99.90;;;4.98;97.13;98390.25;5227562;28;20219;-83
2023/02/01 04:13:42;;;;;;;4.37;4.07;;;4.50;99.90;;;4.96;97.31;98397.69;5225620;28;20221;-83
2023/02/01 04:16:15;;;;;;;4.00;3.73;;;4.40;99.90;;;5.05;97.16;98417.00;5222381;28;20298;-83
2023/02/01 04:18:48;;;;;;;3.67;3.47;;;4.40;99.90;;;4.90;97.96;98402.25;5222689;28;20200;-83
2023/02/01 04:21:21;;;;;;;4.50;4.20;;;4.40;99.90;;;4.94;97.83;98396.66;5219183;28;20726;-83
2023/02/01 04:23:55;;;;;;;4.17;3.80;;;4.40;99.90;;;5.01;97.72;98395.59;5222182;28;20197;-82
2023/02/01 04:26:29;;;;;;;4.10;3.80;;;4.40;99.90;;;5.11;97.28;98397.25;5219283;28;20284;-82
2023/02/01 04:29:02;;;;;;;4.33;4.03;;;4.40;99.90;;;5.20;96.63;98398.03;5219680;28;20273;-82
2023/02/01 04:31:36;;;;;;;6.13;5.63;;;4.40;99.90;;;5.15;97.31;98397.66;5221924;28;20225;-82
2023/02/01 04:34:09;;;;;;;7.23;6.53;;;4.40;99.90;;;5.23;96.48;98385.63;5222654;28;20225;-83
2023/02/01 04:36:42;;;;;;;4.30;3.90;;;4.50;99.90;;;5.33;95.92;98369.59;5220879;28;20190;-82
2023/02/01 04:39:19;;;;;;;4.07;3.80;;;4.60;99.90;;;5.32;95.62;98373.78;5218520;28;20197;-82
2023/02/01 04:41:53;;;;;;;3.83;3.53;;;4.60;99.90;;;5.31;95.72;98396.44;5219932;28;20216;-82
2023/02/01 04:44:26;;;;;;;4.10;3.80;;;4.60;99.90;;;5.24;96.23;98395.03;5214364;28;20580;-81
2023/02/01 04:46:59;;;;;;;3.80;3.50;;;4.50;99.90;;;5.27;96.43;98381.75;5219177;28;20284;-82
2023/02/01 04:49:33;;;;;;;3.97;3.67;;;4.50;99.90;;;5.28;95.34;98378.44;5216166;28;20202;-82
2023/02/01 04:52:06;;;;;;;4.50;4.20;;;4.60;99.90;;;5.33;94.71;98385.69;5218623;28;20230;-82
2023/02/01 04:54:39;;;;;;;4.17;3.77;;;4.60;99.90;;;5.34;95.85;98372.25;5220674;28;20217;-83
2023/02/01 04:57:14;;;;;;;4.10;3.90;;;4.60;99.90;;;5.23;95.72;98374.63;5214955;28;20305;-82
2023/02/01 04:59:47;;;;;;;4.27;3.97;;;4.40;99.90;;;5.21;96.15;98382.09;5224757;28;20284;-82
2023/02/01 05:02:20;;;;;;;4.10;3.80;;;4.50;99.90;;;5.24;96.11;98382.38;5219719;28;20229;-82
2023/02/01 05:04:55;;;;;;;3.60;3.30;;;4.50;99.90;;;5.36;95.59;98385.06;5221520;28;20664;-82
2023/02/01 05:07:30;;;;;;;4.00;3.70;;;4.60;99.90;;;5.28;95.68;98384.38;5214234;28;20233;-82
2023/02/01 05:10:03;;;;;;;3.93;3.63;;;4.50;99.90;;;5.24;95.82;98373.88;5223764;28;20197;-81
2023/02/01 05:15:29;;;;;;;4.30;4.00;;;4.60;99.90;;;5.41;95.23;98379.63;5225342;28;20816;-82
2023/02/01 05:18:02;;;;;;;4.23;3.93;;;4.60;99.90;;;5.42;94.60;98380.50;5225546;28;20292;-81
2023/02/01 05:20:36;;;;;;;4.00;3.70;;;4.70;99.90;;;5.38;94.71;98392.03;5222859;28;20276;-81
2023/02/01 05:23:09;;;;;;;4.40;4.10;;;4.70;99.90;;;5.32;95.20;98388.06;5213082;28;20229;-80
2023/02/01 05:25:43;;;;;;;3.80;3.60;;;4.60;99.90;;;5.20;95.42;98390.44;5223984;28;20225;-81
2023/02/01 05:28:17;;;;;;;4.50;4.10;;;4.60;99.90;;;5.28;96.06;98388.56;5221450;28;20200;-81
2023/02/01 05:30:50;;;;;;;4.13;3.93;;;4.50;99.90;;;5.22;96.19;98382.97;5219226;28;20413;-81
2023/02/01 05:33:23;;;;;;;3.90;3.67;;;4.50;99.90;;;5.20;96.45;98373.59;5223480;28;20304;-81
2023/02/01 05:35:56;;;;;;;4.00;3.70;;;4.50;99.90;;;5.45;94.39;98382.41;5216295;28;20272;-81
2023/02/01 05:38:29;;;;;;;3.83;3.63;;;4.60;99.90;;;5.33;94.84;98383.16;5225637;28;20204;-82
2023/02/01 05:41:03;;;;;;;4.20;3.93;;;4.60;99.90;;;5.43;94.30;98378.09;5223932;28;20318;-81
2023/02/01 05:43:37;;;;;;;3.80;3.60;;;4.70;99.90;;;5.41;95.08;98384.69;5217395;28;20245;-81
2023/02/01 05:46:12;;;;;;;4.20;3.87;;;4.60;99.90;;;5.38;93.59;98381.00;5224219;28;20197;-82
2023/02/01 05:48:45;;;;;;;4.23;3.93;;;4.70;99.90;;;5.32;94.35;98386.44;5221963;28;20197;-82
2023/02/01 05:51:18;;;;;;;3.70;3.50;;;4.70;99.90;;;5.48;93.84;98380.13;5219904;28;20224;-80
2023/02/01 05:53:51;;;;;;;3.70;3.50;;;4.80;99.90;;;5.43;93.53;98378.09;5219816;28;20251;-82
2023/02/01 05:56:25;;;;;;;4.30;4.03;;;4.90;99.90;;;5.51;92.73;98365.19;5226441;28;20232;-79
2023/02/01 05:58:59;;;;;;;4.00;3.80;;;4.80;99.90;;;5.45;93.71;98374.81;5227843;28;20673;-82
2023/02/01 06:01:32;;;;;;;4.37;3.97;;;4.90;99.90;;;5.34;94.68;98381.50;5225783;28;20229;-80
2023/02/01 06:04:05;;;;;;;3.70;3.40;;;4.80;99.90;;;5.40;95.17;98384.53;5224006;28;20228;-81
2023/02/01 06:06:38;;;;;;;4.20;3.90;;;4.70;99.90;;;5.37;95.40;98387.69;5218773;28;20197;-80
2023/02/01 06:09:11;;;;;;;4.07;3.87;;;4.70;99.90;;;5.31;95.14;98386.31;5222783;28;20203;-81
2023/02/01 06:11:44;;;;;;;3.97;3.77;;;4.70;99.90;;;5.37;94.94;98377.56;5219960;28;20223;-82
2023/02/01 06:14:19;;;;;;;3.60;3.40;;;4.70;99.90;;;5.31;95.89;98376.16;5220451;28;20221;-83
2023/02/01 06:16:52;;;;;;;4.17;3.80;;;4.60;99.90;;;5.31;94.94;98386.31;5223337;28;20315;-81
2023/02/01 06:20:25;;;;;;;4.03;3.73;;;4.60;99.90;;;5.31;94.95;98376.16;5223995;28;20196;-81
2023/02/01 06:23:12;;;;;;;3.80;3.50;;;4.60;99.90;;;5.36;94.18;98383.41;5138902;28;20236;-80
2023/02/01 06:25:45;;;;;;;3.80;3.50;;;4.60;99.90;;;5.32;94.54;98394.06;5203193;28;20321;-81
2023/02/01 06:28:19;;;;;;;3.47;3.20;;;4.60;99.90;;;5.34;93.98;98392.50;5219587;28;20291;-82
2023/02/01 06:30:53;;;;;;;3.90;3.70;;;4.60;99.90;;;5.22;94.68;98386.41;5215075;28;20201;-81
2023/02/01 06:33:26;;;;;;;4.03;3.73;;;4.60;99.90;;;5.35;93.90;98389.25;5219880;28;20228;-81
2023/02/01 06:36:00;;;;;;;4.00;3.70;;;4.60;99.90;;;5.40;94.30;98395.56;5223321;28;20335;-81
2023/02/01 06:38:35;;;;;;;3.63;3.37;;;4.60;99.90;;;5.49;93.29;98404.72;5219779;28;20659;-81
2023/02/01 06:41:08;;;;;;;3.47;3.27;;;4.60;99.90;;;5.44;93.49;98399.28;5222851;28;20200;-79
2023/02/01 06:43:41;;;;;;;3.63;3.33;;;4.60;99.90;;;5.55;92.72;98387.50;5221781;28;20335;-80
2023/02/01 06:46:16;;;;;;;4.17;3.87;;;4.80;99.90;;;5.63;91.86;98386.50;5224386;28;20292;-81
2023/02/01 06:48:50;;;;;;;4.10;3.67;;;4.90;99.90;;;5.48;92.68;98396.22;5220603;28;20201;-82
2023/02/01 06:51:26;;;;;;;4.17;3.77;;;4.80;99.90;;;5.50;93.02;98396.38;5220364;28;20369;-81
2023/02/01 06:53:59;;;;;;;4.07;3.77;;;4.80;99.90;;;5.52;93.01;98384.69;5224978;28;20685;-82
2023/02/01 06:56:32;;;;;;;4.07;3.87;;;4.90;99.90;;;5.35;93.63;98403.53;5224380;28;20260;-82
2023/02/01 06:59:06;;;;;;;4.50;3.67;;;4.80;99.90;;;5.40;93.83;98407.34;5223776;28;20208;-81
2023/02/01 07:01:40;;;;;;;4.17;3.87;;;4.70;99.90;;;5.54;93.45;98426.28;5223984;28;20251;-82
2023/02/01 07:04:14;;;;;;;4.00;3.70;;;4.70;99.90;;;5.34;93.95;98417.84;5226383;28;20220;-82
2023/02/01 07:06:47;;;;;;;4.33;4.03;;;4.70;99.90;;;5.38;94.66;98427.53;5229326;28;20209;-82
2023/02/01 07:09:20;;;;;;;4.03;3.83;;;4.70;99.90;;;5.30;94.90;98420.91;5226921;28;20318;-82
2023/02/01 07:11:53;;;;;;;6.70;6.17;;;4.70;99.90;;;5.37;94.16;98428.25;5229016;28;20216;-81
2023/02/01 07:14:26;;;;;;;6.03;5.50;;;4.70;99.90;;;5.35;94.49;98432.31;5228255;28;20211;-82
2023/02/01 07:17:00;;;;;;;4.53;4.23;;;4.60;99.90;;;5.35;94.64;98434.88;5227509;28;20243;-82
2023/02/01 07:19:34;;;;;;;4.10;3.87;;;4.60;99.90;;;5.48;93.67;98430.84;5227685;28;20213;-82
2023/02/01 07:22:07;;;;;;;4.00;3.70;;;4.70;99.90;;;5.43;94.25;98441.44;5219740;28;20285;-82
2023/02/01 07:24:40;;;;;;;4.10;3.80;;;4.70;99.90;;;5.43;93.72;98445.63;5220440;28;20292;-83
2023/02/01 07:27:13;;;;;;;5.20;4.17;;;4.80;99.90;;;5.33;94.36;98445.63;5221757;28;20205;-83
2023/02/01 07:29:46;;;;;;;4.20;3.90;;;4.60;99.90;;;5.42;93.86;98457.44;5221736;28;20228;-82
2023/02/01 07:32:20;;;;;;;3.80;3.60;;;4.70;99.90;;;5.37;94.54;98458.66;5224332;28;20256;-82
2023/02/01 07:34:53;;;;;;;4.43;4.17;;;4.70;99.90;;;5.50;94.44;98449.63;5225624;28;20197;-82
2023/02/01 07:37:26;;;;;;;4.03;3.80;;;4.80;99.90;;;5.37;95.27;98450.19;5222229;28;20221;-83
2023/02/01 07:39:59;;;;;;;4.90;4.40;;;4.70;99.90;;;5.37;96.12;98450.19;5222988;28;20343;-84
2023/02/01 07:42:32;;;;;;;4.40;4.13;;;4.60;99.90;;;5.21;97.35;98460.66;5221917;28;20303;-83
2023/02/01 07:45:07;;;;;;;4.83;4.33;;;4.50;99.90;;;5.22;97.92;98454.81;5220934;28;20319;-85
2023/02/01 07:47:54;;;;;;;4.33;3.93;;;4.50;99.90;;;5.33;97.90;98459.19;5219919;28;20231;-83
2023/02/01 07:50:27;;;;;;;7.17;3.93;;;4.50;99.90;;;5.19;97.90;98447.84;5221867;28;20300;-84
2023/02/01 07:53:01;;;;;;;4.20;3.90;;;4.60;99.90;;;5.19;98.74;98452.03;5226993;28;20247;-82
2023/02/01 07:55:34;;;;;;;4.93;4.10;;;4.50;99.90;;;5.25;98.14;98459.28;5225953;28;20201;-83
2023/02/01 07:58:07;;;;;;;4.60;3.97;;;4.50;99.90;;;5.15;98.60;98463.53;5224748;28;20201;-83
2023/02/01 08:03:32;;;;;;;4.63;4.33;;;4.50;99.90;;;5.18;99.43;98451.13;5225400;28;20225;-85
2023/02/01 08:06:06;;;;;;;4.80;4.30;;;4.50;99.90;;;5.30;98.28;98445.34;5223000;28;20246;-81
2023/02/01 08:08:40;;;;;;;4.67;4.27;;;4.50;99.90;;;5.23;97.99;98441.38;5222584;28;20201;-82
2023/02/01 08:11:13;;;;;;;5.63;4.40;;;4.50;99.90;;;5.26;97.97;98445.84;5222658;28;20201;-81
2023/02/01 08:13:47;;;;;;;5.43;4.97;;;4.50;99.90;;;5.26;98.61;98440.75;5219566;28;20205;-80
2023/02/01 08:16:21;;;;;;;5.17;4.37;;;4.60;99.90;;;5.15;99.14;98430.59;5221409;28;20267;-82
2023/02/01 08:18:56;;;;;;;4.40;4.00;;;4.50;99.90;;;5.17;99.33;98434.13;5217947;28;20231;-82
2023/02/01 08:21:36;;;;;;;5.30;4.30;;;4.50;99.90;;;5.36;98.36;98426.50;5221514;28;20228;-83
2023/02/01 08:24:11;;;;;;;4.57;4.23;;;4.60;99.90;;;5.28;98.18;98437.59;5222317;28;20201;-82
2023/02/01 08:26:44;;;;;;;6.47;4.20;;;4.60;99.90;;;5.27;97.69;98430.78;5224032;28;20196;-82
2023/02/01 08:29:17;;;;;;;4.47;4.07;;;4.60;99.90;;;5.23;97.70;98438.84;5225145;28;20197;-82
2023/02/01 08:31:50;;;;;;;4.53;4.13;;;4.60;99.90;;;5.21;98.53;98430.25;5223585;28;20217;-83
2023/02/01 08:34:25;;;;;;;5.37;4.30;;;4.50;99.90;;;5.22;97.93;98421.88;5226170;28;20251;-82
2023/02/01 08:36:58;;;;;;;4.77;4.37;;;4.50;99.90;;;5.29;97.14;98429.22;5225105;28;20212;-80
2023/02/01 08:39:31;;;;;;;4.77;4.37;;;4.60;99.90;;;5.20;97.60;98433.50;5230999;28;20251;-83
2023/02/01 08:44:55;;;;;;;4.33;3.93;;;4.60;99.90;;;5.42;96.47;98447.28;5226074;28;20209;-84
2023/02/01 08:47:29;;;;;;;4.50;4.20;;;4.70;99.90;;;5.43;95.98;98443.09;5227199;28;20217;-85
2023/02/01 08:50:05;;;;;;;4.57;4.00;;;4.70;99.90;;;5.58;95.13;98453.66;5231099;28;20193;-85
2023/02/01 08:52:38;;;;;;;3.70;3.50;;;4.80;99.90;;;5.54;95.52;98451.63;5228486;28;20217;-84
2023/02/01 08:55:12;;;;;;;4.83;4.37;;;4.90;99.90;;;5.43;95.85;98448.19;5227569;28;20561;-80
2023/02/01 08:57:45;;;;;;;4.90;4.50;;;4.90;99.90;;;5.49;95.52;98463.03;5232036;28;20225;-84
2023/02/01 09:00:19;;;;;;;4.77;4.30;;;4.80;99.90;;;5.46;95.79;98465.31;5227113;28;20244;-85
2023/02/01 09:02:52;;;;;;;4.60;4.30;;;4.90;99.90;;;5.49;95.62;98453.78;5230699;28;20596;-83
2023/02/01 09:05:27;;;;;;;4.50;4.20;;;4.80;99.90;;;5.65;94.79;98453.44;5227679;28;20205;-85
2023/02/01 09:08:20;;;;;;;4.00;3.70;;;4.80;99.90;;;5.60;94.80;98453.03;5227582;28;20276;-85
2023/02/01 09:10:53;;;;;;;4.63;4.23;;;5.00;99.90;;;5.69;93.61;98449.53;5226217;28;20675;-82
2023/02/01 09:13:26;;;;;;;4.87;4.30;;;5.10;99.90;;;5.66;94.32;98455.22;5226787;28;20227;-82
2023/02/01 09:15:59;;;;;;;4.83;4.27;;;5.10;99.90;;;5.73;93.50;98460.06;5224122;28;20209;-83
2023/02/01 09:18:33;;;;;;;4.63;4.23;;;5.20;99.90;;;5.79;93.35;98468.19;5226309;28;20197;-81
2023/02/01 09:21:08;;;;;;;5.00;4.03;;;5.20;99.90;;;5.79;93.80;98468.19;5224128;28;20209;-83
2023/02/01 09:23:41;;;;;;;4.33;3.87;;;5.10;99.90;;;5.85;92.92;98463.63;5227390;28;20216;-84
2023/02/01 09:26:14;;;;;;;4.43;3.87;;;5.20;99.90;;;5.82;93.01;98460.84;5221832;28;20676;-82
2023/02/01 09:28:51;;;;;;;4.97;3.83;;;5.10;99.90;;;5.91;92.20;98454.78;5225577;28;20200;-83
2023/02/01 09:31:25;;;;;;;4.87;4.47;;;5.10;99.90;;;6.01;91.36;98443.03;5227898;28;20233;-83
2023/02/01 09:33:58;;;;;;;4.97;4.43;;;5.30;99.90;;;6.00;91.76;98451.38;5230678;28;20201;-82
2023/02/01 09:36:33;;;;;;;4.83;4.43;;;5.40;99.90;;;6.16;90.37;98458.66;5229511;28;20236;-85
2023/02/01 09:39:06;;;;;;;6.27;4.23;;;5.60;99.90;;;6.19;90.50;98453.81;5227215;28;20197;-81
2023/02/01 09:41:52;;;;;;;7.23;4.40;;;5.60;99.90;;;6.11;91.88;98464.97;5232079;28;20213;-83
2023/02/01 09:44:50;;;;;;;5.80;4.40;;;5.60;99.90;;;6.09;91.44;98471.56;5229413;28;20323;-82
2023/02/01 09:47:25;;;;;;;6.80;3.90;;;5.50;99.90;;;5.97;92.74;98470.53;5227769;28;20704;-83
2023/02/01 09:50:04;;;;;;;4.87;4.47;;;5.50;99.90;;;5.98;93.72;98477.38;5222611;28;20201;-83
2023/02/01 09:52:45;;;;;;;5.80;4.40;;;5.50;99.90;;;5.83;96.07;98482.91;5226559;28;20229;-82
2023/02/01 09:55:25;;;;;;;6.13;4.63;;;5.40;99.90;;;5.81;97.64;98481.91;5228255;28;20219;-82
2023/02/01 09:58:04;;;;;;;5.33;4.83;;;5.20;99.90;;;5.72;98.24;98488.72;5226260;28;20296;-83
2023/02/01 10:00:40;;;;;;;5.30;4.30;;;5.10;99.90;;;5.64;98.35;98487.19;5224061;28;20319;-82
2023/02/01 10:03:14;;;;;;;5.67;4.87;;;5.10;99.90;;;5.58;98.74;98496.78;5220840;28;20218;-83
2023/02/01 10:06:34;;;;;;;5.50;4.90;;;5.00;99.90;;;5.65;98.16;98489.84;5225948;28;20213;-82
2023/02/01 10:09:30;;;;;;;4.70;4.30;;;5.10;99.90;;;5.77;97.48;98491.66;5206792;28;20212;-78
2023/02/01 10:12:39;;;;;;;6.07;4.67;;;5.10;99.90;;;5.75;96.80;98496.59;5219229;28;20279;-81
2023/02/01 10:15:45;;;;;;;4.97;4.57;;;5.10;99.90;;;5.71;96.60;98492.00;5219761;28;20682;-80
2023/02/01 10:18:46;;;;;;;5.30;4.13;;;5.10;99.90;;;5.69;95.81;98490.09;5222043;28;20228;-81
2023/02/01 10:21:41;;;;;;;4.57;3.70;;;5.20;99.90;;;5.70;95.85;98490.25;5221249;28;20654;-81
2023/02/01 10:24:40;;;;;;;4.93;4.20;;;5.10;99.90;;;5.66;95.51;98498.31;5224687;28;20197;-82
2023/02/01 10:27:18;;;;;;;5.60;4.70;;;5.00;99.90;;;5.65;95.66;98501.63;5225257;28;20206;-81
2023/02/01 10:29:57;;;;;;;4.77;4.37;;;5.00;99.90;;;5.77;94.65;98495.06;5224074;28;20647;-80
2023/02/01 10:32:34;;;;;;;6.80;4.03;;;5.20;99.90;;;5.81;94.51;98502.19;5224840;28;20220;-82
2023/02/01 10:35:15;;;;;;;4.87;4.00;;;5.20;99.90;;;5.82;94.21;98501.44;5219508;28;20220;-81
2023/02/01 10:37:48;;;;;;;4.43;4.03;;;5.30;99.90;;;5.91;94.89;98498.78;5221875;28;20205;-80
2023/02/01 10:40:26;;;;;;;4.67;3.97;;;5.30;99.90;;;6.01;93.56;98497.94;5223645;28;20288;-82
2023/02/01 10:43:02;;;;;;;5.47;4.00;;;5.40;99.90;;;6.20;92.47;98501.28;5225614;28;20231;-81
2023/02/01 10:45:35;;;;;;;5.40;3.97;;;5.60;99.90;;;6.39;92.43;98507.91;5222197;28;20207;-79
2023/02/01 10:48:09;;;;;;;4.53;3.93;;;5.80;99.90;;;6.40;91.89;98502.06;5218692;28;20240;-81
2023/02/01 10:50:55;;;;;;;5.47;4.60;;;5.80;99.90;;;6.53;91.06;98509.97;5220597;28;20572;-80
2023/02/01 10:53:37;;;;;;;6.13;4.00;;;6.00;99.90;;;6.59;90.94;98507.03;5221707;28;20228;-82
2023/02/01 10:56:13;;;;;;;6.70;4.60;;;6.10;99.90;;;6.68;90.13;98498.50;5219612;28;20274;-81
2023/02/01 10:58:48;;;;;;;6.37;4.70;;;6.00;99.90;;;6.66;89.18;98506.75;5222026;28;20315;-82
2023/02/01 11:01:26;;;;;;;4.80;4.40;;;6.00;99.90;;;6.84;88.54;98504.84;5219793;28;20211;-80
2023/02/01 11:04:01;;;;;;;5.03;4.23;;;6.20;99.90;;;6.73;87.74;98492.16;5222705;28;20233;-82
2023/02/01 11:06:37;;;;;;;5.20;4.43;;;6.20;99.90;;;6.67;87.49;98486.59;5218131;28;20200;-79
2023/02/01 11:09:20;;;;;;;6.57;4.57;;;6.10;99.90;;;6.67;87.66;98486.59;5218371;28;20240;-82
2023/02/01 11:12:00;;;;;;;6.93;4.47;;;6.00;99.90;;;6.74;87.22;98493.03;5215476;28;20286;-83
2023/02/01 11:14:39;;;;;;;4.00;3.60;;;6.00;99.90;;;6.76;86.50;98494.94;5220055;28;20197;-80
2023/02/01 11:17:28;;;;;;;5.50;4.40;;;6.00;99.90;;;6.69;85.98;98477.41;5218931;28;20267;-81
2023/02/01 11:20:05;;;;;;;6.80;4.27;;;6.20;99.90;;;6.60;87.11;98478.31;5216195;28;20220;-82
2023/02/01 11:22:38;;;;;;;8.60;4.60;;;6.00;99.90;;;6.68;85.43;98480.72;5218202;28;20248;-83
2023/02/01 11:25:15;;;;;;;5.27;4.10;;;6.10;99.90;;;6.60;86.48;98471.59;5223179;28;20297;-80
2023/02/01 11:27:49;;;;;;;4.43;4.10;;;6.10;99.90;;;6.61;86.38;98470.84;5218008;28;20720;-81
2023/02/01 11:30:35;;;;;;;6.00;4.07;;;6.00;99.90;;;6.58;86.80;98500.16;5219358;28;20685;-80
2023/02/01 11:33:14;;;;;;;7.57;4.27;;;5.90;99.90;;;6.53;87.35;98489.63;5224527;28;20271;-82
2023/02/01 11:35:59;;;;;;;6.57;4.50;;;5.80;99.90;;;6.46;87.30;98474.66;5221000;28;20197;-81
2023/02/01 11:38:34;;;;;;;6.23;3.77;;;5.80;99.90;;;6.57;86.97;98476.41;5216157;28;20210;-81
2023/02/01 11:41:24;;;;;;;5.30;4.20;;;5.80;99.90;;;6.64;87.14;98472.72;5214670;28;20240;-79
2023/02/01 11:44:01;;;;;;;6.93;3.80;;;5.80;99.90;;;6.54;85.96;98471.09;5216803;28;20229;-81